sensor_id;sensor_type;location;lat;lon;timestamp;P1;durP1;ratioP1;P2;durP2;ratioP2
21089;SDS011;10703;51.020;6.128;2022-08-25T00:01:58;9.73;;;3.50;;
21089;SDS011;10703;51.020;6.128;2022-08-25T00:04:28;8.40;;;3.70;;
21089;SDS011;10703;51.020;6.128;2022-08-25T00:06:55;10.47;;;3.80;;
21089;SDS011;10703;51.020;6.128;2022-08-25T00:09:28;11.40;;;3.53;;
21089;SDS011;10703;51.020;6.128;2022-08-25T00:11:57;13.57;;;3.27;;
21089;SDS011;10703;51.020;6.128;2022-08-25T00:14:26;6.80;;;2.90;;
21089;SDS011;10703;51.020;6.128;2022-08-25T00:16:55;13.53;;;3.57;;
21089;SDS011;10703;51.020;6.128;2022-08-25T00:19:24;9.57;;;2.97;;
21089;SDS011;10703;51.020;6.128;2022-08-25T00:21:53;14.13;;;4.00;;
21089;SDS011;10703;51.020;6.128;2022-08-25T00:24:20;12.57;;;3.00;;
21089;SDS011;10703;51.020;6.128;2022-08-25T00:26:49;20.57;;;4.17;;
21089;SDS011;10703;51.020;6.128;2022-08-25T00:29:20;11.67;;;3.70;;
21089;SDS011;10703;51.020;6.128;2022-08-25T00:31:47;17.03;;;4.07;;
21089;SDS011;10703;51.020;6.128;2022-08-25T00:34:15;9.80;;;3.40;;
21089;SDS011;10703;51.020;6.128;2022-08-25T00:36:45;14.03;;;2.97;;
21089;SDS011;10703;51.020;6.128;2022-08-25T00:39:13;13.30;;;4.03;;
21089;SDS011;10703;51.020;6.128;2022-08-25T00:41:40;14.30;;;3.13;;
21089;SDS011;10703;51.020;6.128;2022-08-25T00:44:09;13.70;;;3.40;;
21089;SDS011;10703;51.020;6.128;2022-08-25T00:46:39;14.83;;;3.40;;
21089;SDS011;10703;51.020;6.128;2022-08-25T00:49:11;9.47;;;3.10;;
21089;SDS011;10703;51.020;6.128;2022-08-25T00:51:57;9.13;;;3.30;;
21089;SDS011;10703;51.020;6.128;2022-08-25T00:54:44;22.53;;;3.57;;
21089;SDS011;10703;51.020;6.128;2022-08-25T00:57:16;15.70;;;3.37;;
21089;SDS011;10703;51.020;6.128;2022-08-25T00:59:59;13.90;;;3.20;;
21089;SDS011;10703;51.020;6.128;2022-08-25T01:02:28;10.47;;;3.20;;
21089;SDS011;10703;51.020;6.128;2022-08-25T01:04:55;8.13;;;3.20;;
21089;SDS011;10703;51.020;6.128;2022-08-25T01:07:21;13.07;;;3.63;;
21089;SDS011;10703;51.020;6.128;2022-08-25T01:09:49;11.60;;;3.80;;
21089;SDS011;10703;51.020;6.128;2022-08-25T01:12:17;16.13;;;3.23;;
21089;SDS011;10703;51.020;6.128;2022-08-25T01:14:44;10.80;;;2.80;;
21089;SDS011;10703;51.020;6.128;2022-08-25T01:17:12;9.20;;;3.20;;
21089;SDS011;10703;51.020;6.128;2022-08-25T01:19:39;8.83;;;2.60;;
21089;SDS011;10703;51.020;6.128;2022-08-25T01:22:07;13.80;;;3.27;;
21089;SDS011;10703;51.020;6.128;2022-08-25T01:24:55;12.97;;;3.10;;
21089;SDS011;10703;51.020;6.128;2022-08-25T01:27:27;11.13;;;2.77;;
21089;SDS011;10703;51.020;6.128;2022-08-25T01:29:56;14.33;;;3.30;;
21089;SDS011;10703;51.020;6.128;2022-08-25T01:32:23;10.47;;;2.80;;
21089;SDS011;10703;51.020;6.128;2022-08-25T01:34:50;10.87;;;3.10;;
21089;SDS011;10703;51.020;6.128;2022-08-25T01:37:17;10.57;;;3.13;;
21089;SDS011;10703;51.020;6.128;2022-08-25T01:39:44;8.47;;;2.73;;
21089;SDS011;10703;51.020;6.128;2022-08-25T01:44:41;6.63;;;2.90;;
21089;SDS011;10703;51.020;6.128;2022-08-25T01:47:09;13.70;;;3.03;;
21089;SDS011;10703;51.020;6.128;2022-08-25T01:49:37;9.13;;;2.93;;
21089;SDS011;10703;51.020;6.128;2022-08-25T01:52:22;10.50;;;2.70;;
21089;SDS011;10703;51.020;6.128;2022-08-25T01:54:58;10.67;;;2.73;;
21089;SDS011;10703;51.020;6.128;2022-08-25T01:57:27;10.10;;;2.87;;
21089;SDS011;10703;51.020;6.128;2022-08-25T01:59:56;9.03;;;3.13;;
21089;SDS011;10703;51.020;6.128;2022-08-25T02:02:24;12.20;;;3.33;;
21089;SDS011;10703;51.020;6.128;2022-08-25T02:04:51;8.87;;;2.90;;
21089;SDS011;10703;51.020;6.128;2022-08-25T02:07:18;4.27;;;2.23;;
21089;SDS011;10703;51.020;6.128;2022-08-25T02:09:45;12.20;;;2.83;;
21089;SDS011;10703;51.020;6.128;2022-08-25T02:12:12;12.57;;;3.43;;
21089;SDS011;10703;51.020;6.128;2022-08-25T02:14:38;12.63;;;3.43;;
21089;SDS011;10703;51.020;6.128;2022-08-25T02:17:07;8.93;;;2.90;;
21089;SDS011;10703;51.020;6.128;2022-08-25T02:19:34;9.40;;;3.10;;
21089;SDS011;10703;51.020;6.128;2022-08-25T02:22:01;11.47;;;3.10;;
21089;SDS011;10703;51.020;6.128;2022-08-25T02:24:28;8.17;;;3.23;;
21089;SDS011;10703;51.020;6.128;2022-08-25T02:26:54;7.10;;;3.20;;
21089;SDS011;10703;51.020;6.128;2022-08-25T02:29:21;11.13;;;2.70;;
21089;SDS011;10703;51.020;6.128;2022-08-25T02:31:48;7.30;;;3.13;;
21089;SDS011;10703;51.020;6.128;2022-08-25T02:34:15;10.33;;;3.50;;
21089;SDS011;10703;51.020;6.128;2022-08-25T02:36:42;5.63;;;2.70;;
21089;SDS011;10703;51.020;6.128;2022-08-25T02:39:09;9.57;;;3.13;;
21089;SDS011;10703;51.020;6.128;2022-08-25T02:41:37;5.17;;;2.93;;
21089;SDS011;10703;51.020;6.128;2022-08-25T02:44:04;10.23;;;3.47;;
21089;SDS011;10703;51.020;6.128;2022-08-25T02:46:32;5.83;;;3.03;;
21089;SDS011;10703;51.020;6.128;2022-08-25T02:48:59;6.30;;;3.10;;
21089;SDS011;10703;51.020;6.128;2022-08-25T02:51:26;9.97;;;3.43;;
21089;SDS011;10703;51.020;6.128;2022-08-25T02:53:55;6.47;;;2.83;;
21089;SDS011;10703;51.020;6.128;2022-08-25T02:56:27;10.87;;;3.23;;
21089;SDS011;10703;51.020;6.128;2022-08-25T02:58:55;7.00;;;2.90;;
21089;SDS011;10703;51.020;6.128;2022-08-25T03:01:22;9.73;;;3.07;;
21089;SDS011;10703;51.020;6.128;2022-08-25T03:03:54;10.70;;;3.40;;
21089;SDS011;10703;51.020;6.128;2022-08-25T03:06:22;11.17;;;3.10;;
21089;SDS011;10703;51.020;6.128;2022-08-25T03:08:50;10.47;;;3.33;;
21089;SDS011;10703;51.020;6.128;2022-08-25T03:11:17;7.37;;;3.23;;
21089;SDS011;10703;51.020;6.128;2022-08-25T03:13:45;12.43;;;4.13;;
21089;SDS011;10703;51.020;6.128;2022-08-25T03:16:12;7.70;;;3.40;;
21089;SDS011;10703;51.020;6.128;2022-08-25T03:18:40;9.47;;;3.47;;
21089;SDS011;10703;51.020;6.128;2022-08-25T03:21:08;9.13;;;2.93;;
21089;SDS011;10703;51.020;6.128;2022-08-25T03:23:36;9.03;;;3.20;;
21089;SDS011;10703;51.020;6.128;2022-08-25T03:26:03;14.60;;;3.43;;
21089;SDS011;10703;51.020;6.128;2022-08-25T03:28:48;9.03;;;3.43;;
21089;SDS011;10703;51.020;6.128;2022-08-25T03:31:15;10.50;;;4.57;;
21089;SDS011;10703;51.020;6.128;2022-08-25T03:33:42;10.17;;;3.37;;
21089;SDS011;10703;51.020;6.128;2022-08-25T03:36:09;5.57;;;3.37;;
21089;SDS011;10703;51.020;6.128;2022-08-25T03:38:39;7.60;;;3.20;;
21089;SDS011;10703;51.020;6.128;2022-08-25T03:41:13;7.50;;;2.70;;
21089;SDS011;10703;51.020;6.128;2022-08-25T03:43:41;10.93;;;3.37;;
21089;SDS011;10703;51.020;6.128;2022-08-25T03:46:08;5.13;;;3.00;;
21089;SDS011;10703;51.020;6.128;2022-08-25T03:48:41;13.53;;;3.77;;
21089;SDS011;10703;51.020;6.128;2022-08-25T03:51:08;10.53;;;3.50;;
21089;SDS011;10703;51.020;6.128;2022-08-25T03:53:34;8.70;;;3.67;;
21089;SDS011;10703;51.020;6.128;2022-08-25T03:56:01;8.80;;;3.53;;
21089;SDS011;10703;51.020;6.128;2022-08-25T03:58:28;11.40;;;3.40;;
21089;SDS011;10703;51.020;6.128;2022-08-25T04:00:55;10.13;;;3.73;;
21089;SDS011;10703;51.020;6.128;2022-08-25T04:03:25;7.57;;;3.40;;
21089;SDS011;10703;51.020;6.128;2022-08-25T04:05:52;6.93;;;3.30;;
21089;SDS011;10703;51.020;6.128;2022-08-25T04:08:18;7.43;;;3.63;;
21089;SDS011;10703;51.020;6.128;2022-08-25T04:10:45;14.30;;;3.60;;
21089;SDS011;10703;51.020;6.128;2022-08-25T04:13:13;7.93;;;3.50;;
21089;SDS011;10703;51.020;6.128;2022-08-25T04:15:43;10.47;;;3.10;;
21089;SDS011;10703;51.020;6.128;2022-08-25T04:18:09;18.60;;;3.70;;
21089;SDS011;10703;51.020;6.128;2022-08-25T04:20:36;8.27;;;3.03;;
21089;SDS011;10703;51.020;6.128;2022-08-25T04:23:09;9.50;;;3.40;;
21089;SDS011;10703;51.020;6.128;2022-08-25T04:25:38;9.77;;;3.20;;
21089;SDS011;10703;51.020;6.128;2022-08-25T04:28:11;11.43;;;3.70;;
21089;SDS011;10703;51.020;6.128;2022-08-25T04:30:40;6.70;;;3.43;;
21089;SDS011;10703;51.020;6.128;2022-08-25T04:33:08;7.33;;;3.40;;
21089;SDS011;10703;51.020;6.128;2022-08-25T04:35:34;12.57;;;4.00;;
21089;SDS011;10703;51.020;6.128;2022-08-25T04:38:01;5.70;;;3.10;;
21089;SDS011;10703;51.020;6.128;2022-08-25T04:40:28;12.60;;;3.47;;
21089;SDS011;10703;51.020;6.128;2022-08-25T04:42:54;8.87;;;3.30;;
21089;SDS011;10703;51.020;6.128;2022-08-25T04:45:21;6.33;;;4.00;;
21089;SDS011;10703;51.020;6.128;2022-08-25T04:47:48;10.07;;;3.53;;
21089;SDS011;10703;51.020;6.128;2022-08-25T04:50:20;9.33;;;3.40;;
21089;SDS011;10703;51.020;6.128;2022-08-25T04:52:46;15.33;;;3.57;;
21089;SDS011;10703;51.020;6.128;2022-08-25T04:55:14;7.60;;;3.30;;
21089;SDS011;10703;51.020;6.128;2022-08-25T04:57:41;8.73;;;3.10;;
21089;SDS011;10703;51.020;6.128;2022-08-25T05:00:08;7.37;;;3.33;;
21089;SDS011;10703;51.020;6.128;2022-08-25T05:02:36;12.43;;;3.07;;
21089;SDS011;10703;51.020;6.128;2022-08-25T05:05:03;5.83;;;3.70;;
21089;SDS011;10703;51.020;6.128;2022-08-25T05:07:31;10.77;;;3.47;;
21089;SDS011;10703;51.020;6.128;2022-08-25T05:09:58;7.00;;;3.13;;
21089;SDS011;10703;51.020;6.128;2022-08-25T05:12:24;10.97;;;3.03;;
21089;SDS011;10703;51.020;6.128;2022-08-25T05:14:54;10.03;;;3.67;;
21089;SDS011;10703;51.020;6.128;2022-08-25T05:17:20;8.87;;;3.10;;
21089;SDS011;10703;51.020;6.128;2022-08-25T05:19:47;13.47;;;3.10;;
21089;SDS011;10703;51.020;6.128;2022-08-25T05:22:14;13.07;;;3.50;;
21089;SDS011;10703;51.020;6.128;2022-08-25T05:24:40;8.27;;;3.30;;
21089;SDS011;10703;51.020;6.128;2022-08-25T05:27:07;15.87;;;3.33;;
21089;SDS011;10703;51.020;6.128;2022-08-25T05:29:34;4.73;;;2.73;;
21089;SDS011;10703;51.020;6.128;2022-08-25T05:32:00;12.27;;;3.33;;
21089;SDS011;10703;51.020;6.128;2022-08-25T05:34:27;7.30;;;2.63;;
21089;SDS011;10703;51.020;6.128;2022-08-25T05:36:55;7.87;;;3.10;;
21089;SDS011;10703;51.020;6.128;2022-08-25T05:39:25;8.07;;;2.80;;
21089;SDS011;10703;51.020;6.128;2022-08-25T05:41:52;15.20;;;2.73;;
21089;SDS011;10703;51.020;6.128;2022-08-25T05:44:18;9.07;;;2.80;;
21089;SDS011;10703;51.020;6.128;2022-08-25T05:46:46;7.77;;;2.67;;
21089;SDS011;10703;51.020;6.128;2022-08-25T05:49:13;13.83;;;2.63;;
21089;SDS011;10703;51.020;6.128;2022-08-25T05:51:40;6.63;;;2.50;;
21089;SDS011;10703;51.020;6.128;2022-08-25T05:54:06;14.00;;;2.73;;
21089;SDS011;10703;51.020;6.128;2022-08-25T05:56:33;8.40;;;2.87;;
21089;SDS011;10703;51.020;6.128;2022-08-25T05:59:00;8.90;;;2.60;;
21089;SDS011;10703;51.020;6.128;2022-08-25T06:01:32;8.90;;;2.87;;
21089;SDS011;10703;51.020;6.128;2022-08-25T06:04:17;7.60;;;2.97;;
21089;SDS011;10703;51.020;6.128;2022-08-25T06:06:45;10.80;;;3.17;;
21089;SDS011;10703;51.020;6.128;2022-08-25T06:09:12;8.57;;;2.90;;
21089;SDS011;10703;51.020;6.128;2022-08-25T06:11:39;9.07;;;2.73;;
21089;SDS011;10703;51.020;6.128;2022-08-25T06:14:07;7.10;;;2.73;;
21089;SDS011;10703;51.020;6.128;2022-08-25T06:16:34;7.73;;;2.60;;
21089;SDS011;10703;51.020;6.128;2022-08-25T06:19:01;6.70;;;2.67;;
21089;SDS011;10703;51.020;6.128;2022-08-25T06:21:28;8.73;;;2.90;;
21089;SDS011;10703;51.020;6.128;2022-08-25T06:23:54;9.43;;;2.40;;
21089;SDS011;10703;51.020;6.128;2022-08-25T06:26:22;7.30;;;3.13;;
21089;SDS011;10703;51.020;6.128;2022-08-25T06:28:49;8.17;;;2.53;;
21089;SDS011;10703;51.020;6.128;2022-08-25T06:31:16;16.70;;;2.70;;
21089;SDS011;10703;51.020;6.128;2022-08-25T06:33:43;13.87;;;2.83;;
21089;SDS011;10703;51.020;6.128;2022-08-25T06:36:11;9.33;;;2.23;;
21089;SDS011;10703;51.020;6.128;2022-08-25T06:38:37;7.90;;;2.20;;
21089;SDS011;10703;51.020;6.128;2022-08-25T06:41:04;8.93;;;2.17;;
21089;SDS011;10703;51.020;6.128;2022-08-25T06:43:33;9.70;;;2.20;;
21089;SDS011;10703;51.020;6.128;2022-08-25T06:46:07;4.00;;;2.10;;
21089;SDS011;10703;51.020;6.128;2022-08-25T06:48:38;6.07;;;2.30;;
21089;SDS011;10703;51.020;6.128;2022-08-25T06:51:06;10.43;;;2.50;;
21089;SDS011;10703;51.020;6.128;2022-08-25T06:53:39;8.77;;;2.33;;
21089;SDS011;10703;51.020;6.128;2022-08-25T06:56:06;14.60;;;2.30;;
21089;SDS011;10703;51.020;6.128;2022-08-25T06:58:32;7.40;;;2.50;;
21089;SDS011;10703;51.020;6.128;2022-08-25T07:01:13;9.47;;;2.70;;
21089;SDS011;10703;51.020;6.128;2022-08-25T07:03:45;7.57;;;2.23;;
21089;SDS011;10703;51.020;6.128;2022-08-25T07:06:13;9.50;;;2.30;;
21089;SDS011;10703;51.020;6.128;2022-08-25T07:08:44;6.13;;;2.70;;
21089;SDS011;10703;51.020;6.128;2022-08-25T07:11:12;4.15;;;2.47;;
21089;SDS011;10703;51.020;6.128;2022-08-25T07:13:42;13.30;;;2.75;;
21089;SDS011;10703;51.020;6.128;2022-08-25T07:16:10;10.13;;;2.40;;
21089;SDS011;10703;51.020;6.128;2022-08-25T07:18:37;5.85;;;2.03;;
21089;SDS011;10703;51.020;6.128;2022-08-25T07:21:04;5.25;;;2.10;;
21089;SDS011;10703;51.020;6.128;2022-08-25T07:23:34;9.88;;;2.10;;
21089;SDS011;10703;51.020;6.128;2022-08-25T07:26:11;11.30;;;2.45;;
21089;SDS011;10703;51.020;6.128;2022-08-25T07:29:00;6.65;;;1.92;;
21089;SDS011;10703;51.020;6.128;2022-08-25T07:31:30;7.25;;;2.13;;
21089;SDS011;10703;51.020;6.128;2022-08-25T07:33:57;3.10;;;1.80;;
21089;SDS011;10703;51.020;6.128;2022-08-25T07:36:43;8.55;;;1.90;;
21089;SDS011;10703;51.020;6.128;2022-08-25T07:39:10;11.15;;;2.70;;
21089;SDS011;10703;51.020;6.128;2022-08-25T07:41:40;7.32;;;2.25;;
21089;SDS011;10703;51.020;6.128;2022-08-25T07:44:07;3.88;;;1.90;;
21089;SDS011;10703;51.020;6.128;2022-08-25T07:46:36;5.40;;;2.03;;
21089;SDS011;10703;51.020;6.128;2022-08-25T07:49:04;3.97;;;2.08;;
21089;SDS011;10703;51.020;6.128;2022-08-25T07:51:42;4.95;;;1.90;;
21089;SDS011;10703;51.020;6.128;2022-08-25T07:54:29;8.98;;;2.70;;
21089;SDS011;10703;51.020;6.128;2022-08-25T07:56:59;7.32;;;2.28;;
21089;SDS011;10703;51.020;6.128;2022-08-25T07:59:27;7.35;;;2.30;;
21089;SDS011;10703;51.020;6.128;2022-08-25T08:01:54;8.52;;;2.65;;
21089;SDS011;10703;51.020;6.128;2022-08-25T08:04:21;6.07;;;2.22;;
21089;SDS011;10703;51.020;6.128;2022-08-25T08:06:47;8.98;;;2.67;;
21089;SDS011;10703;51.020;6.128;2022-08-25T08:09:14;12.43;;;2.28;;
21089;SDS011;10703;51.020;6.128;2022-08-25T08:11:41;14.90;;;2.53;;
21089;SDS011;10703;51.020;6.128;2022-08-25T08:14:19;7.85;;;2.53;;
21089;SDS011;10703;51.020;6.128;2022-08-25T08:16:46;10.90;;;2.35;;
21089;SDS011;10703;51.020;6.128;2022-08-25T08:19:13;8.32;;;2.08;;
21089;SDS011;10703;51.020;6.128;2022-08-25T08:21:40;11.00;;;2.60;;
21089;SDS011;10703;51.020;6.128;2022-08-25T08:24:08;10.25;;;2.55;;
21089;SDS011;10703;51.020;6.128;2022-08-25T08:26:54;9.90;;;2.58;;
21089;SDS011;10703;51.020;6.128;2022-08-25T08:29:24;7.63;;;2.53;;
21089;SDS011;10703;51.020;6.128;2022-08-25T08:31:51;9.48;;;2.30;;
21089;SDS011;10703;51.020;6.128;2022-08-25T08:34:18;10.68;;;2.15;;
21089;SDS011;10703;51.020;6.128;2022-08-25T08:36:50;4.72;;;2.47;;
21089;SDS011;10703;51.020;6.128;2022-08-25T08:39:17;10.68;;;2.58;;
21089;SDS011;10703;51.020;6.128;2022-08-25T08:52:43;4.70;;;1.73;;
21089;SDS011;10703;51.020;6.128;2022-08-25T08:55:18;10.05;;;2.08;;
21089;SDS011;10703;51.020;6.128;2022-08-25T08:57:47;7.43;;;2.33;;
21089;SDS011;10703;51.020;6.128;2022-08-25T09:00:16;10.05;;;2.33;;
21089;SDS011;10703;51.020;6.128;2022-08-25T09:02:51;6.80;;;1.60;;
21089;SDS011;10703;51.020;6.128;2022-08-25T09:05:25;9.45;;;1.98;;
21089;SDS011;10703;51.020;6.128;2022-08-25T09:08:08;10.18;;;2.00;;
21089;SDS011;10703;51.020;6.128;2022-08-25T09:16:30;9.30;;;1.75;;
21089;SDS011;10703;51.020;6.128;2022-08-25T09:19:21;11.15;;;2.25;;
21089;SDS011;10703;51.020;6.128;2022-08-25T09:22:11;7.75;;;2.03;;
21089;SDS011;10703;51.020;6.128;2022-08-25T09:28:21;15.70;;;2.25;;
21089;SDS011;10703;51.020;6.128;2022-08-25T09:31:03;9.35;;;1.85;;
21089;SDS011;10703;51.020;6.128;2022-08-25T09:33:39;6.72;;;1.88;;
21089;SDS011;10703;51.020;6.128;2022-08-25T09:36:06;9.73;;;1.85;;
21089;SDS011;10703;51.020;6.128;2022-08-25T09:38:34;12.45;;;1.90;;
21089;SDS011;10703;51.020;6.128;2022-08-25T09:41:02;6.43;;;1.92;;
21089;SDS011;10703;51.020;6.128;2022-08-25T09:43:33;9.38;;;2.13;;
21089;SDS011;10703;51.020;6.128;2022-08-25T09:48:43;8.80;;;2.03;;
21089;SDS011;10703;51.020;6.128;2022-08-25T09:56:54;10.23;;;1.90;;
21089;SDS011;10703;51.020;6.128;2022-08-25T09:59:32;8.27;;;2.20;;
21089;SDS011;10703;51.020;6.128;2022-08-25T10:02:19;10.05;;;1.98;;
21089;SDS011;10703;51.020;6.128;2022-08-25T10:04:54;10.60;;;2.90;;
21089;SDS011;10703;51.020;6.128;2022-08-25T10:07:23;5.82;;;2.20;;
21089;SDS011;10703;51.020;6.128;2022-08-25T10:09:54;12.70;;;2.63;;
21089;SDS011;10703;51.020;6.128;2022-08-25T10:12:28;7.75;;;1.98;;
21089;SDS011;10703;51.020;6.128;2022-08-25T10:14:58;11.98;;;2.25;;
21089;SDS011;10703;51.020;6.128;2022-08-25T10:17:26;6.18;;;1.75;;
21089;SDS011;10703;51.020;6.128;2022-08-25T10:22:45;5.25;;;1.90;;
21089;SDS011;10703;51.020;6.128;2022-08-25T10:25:17;5.93;;;1.98;;
21089;SDS011;10703;51.020;6.128;2022-08-25T10:36:11;5.60;;;1.75;;
21089;SDS011;10703;51.020;6.128;2022-08-25T10:38:56;15.02;;;1.77;;
21089;SDS011;10703;51.020;6.128;2022-08-25T10:53:33;13.20;;;1.75;;
21089;SDS011;10703;51.020;6.128;2022-08-25T10:56:14;6.20;;;1.40;;
21089;SDS011;10703;51.020;6.128;2022-08-25T10:58:48;4.55;;;1.60;;
21089;SDS011;10703;51.020;6.128;2022-08-25T11:04:12;8.07;;;1.65;;
21089;SDS011;10703;51.020;6.128;2022-08-25T11:07:21;5.07;;;1.52;;
21089;SDS011;10703;51.020;6.128;2022-08-25T11:09:59;2.30;;;1.38;;
21089;SDS011;10703;51.020;6.128;2022-08-25T11:12:49;10.93;;;1.63;;
21089;SDS011;10703;51.020;6.128;2022-08-25T11:15:32;4.38;;;1.45;;
21089;SDS011;10703;51.020;6.128;2022-08-25T11:18:25;2.85;;;1.70;;
21089;SDS011;10703;51.020;6.128;2022-08-25T11:21:08;7.32;;;2.03;;
21089;SDS011;10703;51.020;6.128;2022-08-25T11:23:39;7.10;;;1.45;;
21089;SDS011;10703;51.020;6.128;2022-08-25T11:26:10;7.15;;;1.95;;
21089;SDS011;10703;51.020;6.128;2022-08-25T11:28:51;2.83;;;1.20;;
21089;SDS011;10703;51.020;6.128;2022-08-25T11:31:25;6.78;;;1.30;;
21089;SDS011;10703;51.020;6.128;2022-08-25T11:33:53;2.95;;;1.35;;
21089;SDS011;10703;51.020;6.128;2022-08-25T11:36:27;7.20;;;1.58;;
21089;SDS011;10703;51.020;6.128;2022-08-25T11:41:58;3.80;;;1.13;;
21089;SDS011;10703;51.020;6.128;2022-08-25T11:44:59;2.17;;;1.10;;
21089;SDS011;10703;51.020;6.128;2022-08-25T11:53:02;2.13;;;1.20;;
21089;SDS011;10703;51.020;6.128;2022-08-25T11:55:52;4.32;;;1.58;;
21089;SDS011;10703;51.020;6.128;2022-08-25T12:00:57;2.33;;;1.13;;
21089;SDS011;10703;51.020;6.128;2022-08-25T12:09:24;5.13;;;1.40;;
21089;SDS011;10703;51.020;6.128;2022-08-25T12:11:51;1.77;;;1.08;;
21089;SDS011;10703;51.020;6.128;2022-08-25T12:21:51;3.55;;;1.10;;
21089;SDS011;10703;51.020;6.128;2022-08-25T12:24:20;2.92;;;1.02;;
21089;SDS011;10703;51.020;6.128;2022-08-25T12:27:21;5.53;;;1.13;;
21089;SDS011;10703;51.020;6.128;2022-08-25T12:35:50;2.65;;;1.30;;
21089;SDS011;10703;51.020;6.128;2022-08-25T12:41:07;2.53;;;1.17;;
21089;SDS011;10703;51.020;6.128;2022-08-25T12:43:36;5.18;;;1.00;;
21089;SDS011;10703;51.020;6.128;2022-08-25T12:54:11;2.50;;;1.00;;
21089;SDS011;10703;51.020;6.128;2022-08-25T12:56:59;4.10;;;0.90;;
21089;SDS011;10703;51.020;6.128;2022-08-25T13:02:20;6.10;;;1.30;;
21089;SDS011;10703;51.020;6.128;2022-08-25T13:05:33;2.50;;;1.13;;
21089;SDS011;10703;51.020;6.128;2022-08-25T13:08:26;8.45;;;1.00;;
21089;SDS011;10703;51.020;6.128;2022-08-25T13:13:55;1.70;;;0.90;;
21089;SDS011;10703;51.020;6.128;2022-08-25T13:16:36;4.28;;;1.10;;
21089;SDS011;10703;51.020;6.128;2022-08-25T13:19:04;3.53;;;1.20;;
21089;SDS011;10703;51.020;6.128;2022-08-25T13:21:33;7.15;;;0.90;;
21089;SDS011;10703;51.020;6.128;2022-08-25T13:24:04;8.73;;;1.00;;
21089;SDS011;10703;51.020;6.128;2022-08-25T13:26:36;6.95;;;1.00;;
21089;SDS011;10703;51.020;6.128;2022-08-25T13:29:15;4.85;;;1.10;;
21089;SDS011;10703;51.020;6.128;2022-08-25T13:31:56;5.13;;;0.90;;
21089;SDS011;10703;51.020;6.128;2022-08-25T13:34:27;3.58;;;0.98;;
21089;SDS011;10703;51.020;6.128;2022-08-25T13:37:09;4.97;;;1.00;;
21089;SDS011;10703;51.020;6.128;2022-08-25T13:42:57;5.47;;;0.95;;
21089;SDS011;10703;51.020;6.128;2022-08-25T13:45:29;7.25;;;1.00;;
21089;SDS011;10703;51.020;6.128;2022-08-25T13:48:06;4.78;;;1.25;;
21089;SDS011;10703;51.020;6.128;2022-08-25T13:50:48;3.33;;;0.90;;
21089;SDS011;10703;51.020;6.128;2022-08-25T13:53:21;6.30;;;1.30;;
21089;SDS011;10703;51.020;6.128;2022-08-25T13:55:51;4.57;;;1.05;;
21089;SDS011;10703;51.020;6.128;2022-08-25T13:58:26;6.22;;;0.98;;
21089;SDS011;10703;51.020;6.128;2022-08-25T14:04:20;4.75;;;1.10;;
21089;SDS011;10703;51.020;6.128;2022-08-25T14:07:06;8.95;;;1.40;;
21089;SDS011;10703;51.020;6.128;2022-08-25T14:09:47;3.15;;;1.00;;
21089;SDS011;10703;51.020;6.128;2022-08-25T14:14:59;5.78;;;1.25;;
21089;SDS011;10703;51.020;6.128;2022-08-25T14:17:34;5.35;;;1.20;;
21089;SDS011;10703;51.020;6.128;2022-08-25T14:20:06;3.40;;;1.25;;
21089;SDS011;10703;51.020;6.128;2022-08-25T14:22:57;2.95;;;0.98;;
21089;SDS011;10703;51.020;6.128;2022-08-25T14:25:34;5.70;;;1.02;;
21089;SDS011;10703;51.020;6.128;2022-08-25T14:28:02;7.28;;;1.00;;
21089;SDS011;10703;51.020;6.128;2022-08-25T14:30:43;11.18;;;1.30;;
21089;SDS011;10703;51.020;6.128;2022-08-25T14:33:17;6.07;;;1.10;;
21089;SDS011;10703;51.020;6.128;2022-08-25T14:35:47;3.65;;;1.10;;
21089;SDS011;10703;51.020;6.128;2022-08-25T14:38:16;6.53;;;1.02;;
21089;SDS011;10703;51.020;6.128;2022-08-25T14:40:45;1.58;;;1.00;;
21089;SDS011;10703;51.020;6.128;2022-08-25T14:43:13;3.92;;;1.10;;
21089;SDS011;10703;51.020;6.128;2022-08-25T14:45:41;7.32;;;1.48;;
21089;SDS011;10703;51.020;6.128;2022-08-25T14:48:16;13.45;;;1.20;;
21089;SDS011;10703;51.020;6.128;2022-08-25T14:50:50;4.00;;;1.30;;
21089;SDS011;10703;51.020;6.128;2022-08-25T14:53:18;3.75;;;1.17;;
21089;SDS011;10703;51.020;6.128;2022-08-25T14:55:45;4.05;;;1.25;;
21089;SDS011;10703;51.020;6.128;2022-08-25T14:58:12;9.15;;;1.45;;
21089;SDS011;10703;51.020;6.128;2022-08-25T15:00:40;2.65;;;1.42;;
21089;SDS011;10703;51.020;6.128;2022-08-25T15:03:13;3.53;;;1.20;;
21089;SDS011;10703;51.020;6.128;2022-08-25T15:05:46;3.58;;;1.08;;
21089;SDS011;10703;51.020;6.128;2022-08-25T15:08:13;2.70;;;1.02;;
21089;SDS011;10703;51.020;6.128;2022-08-25T15:10:58;4.45;;;1.02;;
21089;SDS011;10703;51.020;6.128;2022-08-25T15:13:25;2.67;;;1.08;;
21089;SDS011;10703;51.020;6.128;2022-08-25T15:15:53;5.88;;;1.10;;
21089;SDS011;10703;51.020;6.128;2022-08-25T15:18:23;5.90;;;1.10;;
21089;SDS011;10703;51.020;6.128;2022-08-25T15:20:50;3.10;;;1.00;;
21089;SDS011;10703;51.020;6.128;2022-08-25T15:23:17;10.15;;;1.17;;
21089;SDS011;10703;51.020;6.128;2022-08-25T15:25:45;4.90;;;1.10;;
21089;SDS011;10703;51.020;6.128;2022-08-25T15:28:13;6.22;;;1.30;;
21089;SDS011;10703;51.020;6.128;2022-08-25T15:30:42;4.03;;;1.10;;
21089;SDS011;10703;51.020;6.128;2022-08-25T15:33:11;3.50;;;1.30;;
21089;SDS011;10703;51.020;6.128;2022-08-25T15:35:38;8.30;;;1.45;;
21089;SDS011;10703;51.020;6.128;2022-08-25T15:38:06;3.28;;;1.00;;
21089;SDS011;10703;51.020;6.128;2022-08-25T15:40:33;6.93;;;1.25;;
21089;SDS011;10703;51.020;6.128;2022-08-25T15:43:02;5.93;;;1.13;;
21089;SDS011;10703;51.020;6.128;2022-08-25T15:45:29;5.38;;;1.20;;
21089;SDS011;10703;51.020;6.128;2022-08-25T15:47:57;3.72;;;1.13;;
21089;SDS011;10703;51.020;6.128;2022-08-25T15:50:23;6.07;;;1.50;;
21089;SDS011;10703;51.020;6.128;2022-08-25T15:52:51;4.50;;;1.10;;
21089;SDS011;10703;51.020;6.128;2022-08-25T15:55:18;7.07;;;1.30;;
21089;SDS011;10703;51.020;6.128;2022-08-25T15:57:46;5.25;;;1.00;;
21089;SDS011;10703;51.020;6.128;2022-08-25T16:00:15;1.80;;;1.10;;
21089;SDS011;10703;51.020;6.128;2022-08-25T16:02:43;5.32;;;1.10;;
21089;SDS011;10703;51.020;6.128;2022-08-25T16:05:11;8.23;;;1.20;;
21089;SDS011;10703;51.020;6.128;2022-08-25T16:07:41;5.85;;;1.40;;
21089;SDS011;10703;51.020;6.128;2022-08-25T16:10:10;3.75;;;1.30;;
21089;SDS011;10703;51.020;6.128;2022-08-25T16:12:37;8.38;;;1.45;;
21089;SDS011;10703;51.020;6.128;2022-08-25T16:15:07;9.00;;;1.30;;
21089;SDS011;10703;51.020;6.128;2022-08-25T16:17:37;7.30;;;1.58;;
21089;SDS011;10703;51.020;6.128;2022-08-25T16:20:08;6.15;;;1.35;;
21089;SDS011;10703;51.020;6.128;2022-08-25T16:22:39;4.25;;;1.20;;
21089;SDS011;10703;51.020;6.128;2022-08-25T16:25:06;4.82;;;1.20;;
21089;SDS011;10703;51.020;6.128;2022-08-25T16:27:33;4.97;;;1.13;;
21089;SDS011;10703;51.020;6.128;2022-08-25T16:30:04;3.17;;;1.23;;
21089;SDS011;10703;51.020;6.128;2022-08-25T16:32:33;4.72;;;1.38;;
21089;SDS011;10703;51.020;6.128;2022-08-25T16:35:00;4.63;;;1.25;;
21089;SDS011;10703;51.020;6.128;2022-08-25T16:37:27;5.53;;;1.25;;
21089;SDS011;10703;51.020;6.128;2022-08-25T16:39:55;5.10;;;1.48;;
21089;SDS011;10703;51.020;6.128;2022-08-25T16:42:22;3.28;;;1.40;;
21089;SDS011;10703;51.020;6.128;2022-08-25T16:44:51;7.53;;;1.52;;
21089;SDS011;10703;51.020;6.128;2022-08-25T16:47:19;3.60;;;1.27;;
21089;SDS011;10703;51.020;6.128;2022-08-25T16:49:52;5.88;;;1.55;;
21089;SDS011;10703;51.020;6.128;2022-08-25T16:52:18;5.13;;;1.42;;
21089;SDS011;10703;51.020;6.128;2022-08-25T16:55:06;4.75;;;1.40;;
21089;SDS011;10703;51.020;6.128;2022-08-25T16:57:40;11.35;;;1.50;;
21089;SDS011;10703;51.020;6.128;2022-08-25T17:00:13;6.18;;;1.42;;